Flight Track Log - Related Links

Times and Time Zones

All times are in EDT time to prevent confusion due to time zone crossing. See the AAL466 flight status page for this flight to view local times or setup timezone preferences in your user account.

Time Position Orientation Groundspeed Altitude Reporting Facility
EDT Latitude Longitude Course Direction KTS MPH feet Rate Location/Type
Sat 07:06:52 AM 29.9566 -95.3384 142° Southeast 172 198 700  Level FlightAware ADS-B
Sat 07:06:57 AM 29.9538 -95.3359 134° Southeast 165 190 1,000 3,000 Climbing FlightAware ADS-B
Sat 07:07:06 AM 29.9489 -95.3300 130° Southeast 162 186 1,400 2,400 Climbing FlightAware ADS-B
Sat 07:07:12 AM 29.9463 -95.3264 128° Southeast 159 183 1,600 1,440 Climbing FlightAware ADS-B
Sat 07:07:31 AM 29.9369 -95.3126 130° Southeast 170 196 2,000 1,059 Climbing FlightAware ADS-B
Sat 07:07:46 AM 29.9285 -95.3010 128° Southeast 194 223 2,200 968 Climbing FlightAware ADS-B
Sat 07:08:02 AM 29.9192 -95.2872 128° Southeast 213 245 2,500 1,371 Climbing FlightAware ADS-B
Sat 07:08:21 AM 29.9070 -95.2691 128° Southeast 231 266 3,000 1,886 Climbing FlightAware ADS-B
Sat 07:08:37 AM 29.8960 -95.2530 125° Southeast 239 275 3,600 2,182 Climbing FlightAware ADS-B
Sat 07:08:43 AM 29.8920 -95.2465 122° Southeast 242 278 3,800 1,800 Climbing FlightAware ADS-B
Sat 07:08:47 AM 29.8901 -95.2430 117° Southeast 244 281 3,900 2,571 Climbing FlightAware ADS-B
Sat 07:08:50 AM 29.8882 -95.2386 114° Southeast 246 283 4,100 3,750 Climbing FlightAware ADS-B
Sat 07:08:55 AM 29.8859 -95.2326 106° East 247 284 4,400 2,727 Climbing FlightAware ADS-B
Sat 07:09:01 AM 29.8840 -95.2251 102° East 250 288 4,600 2,667 Climbing FlightAware ADS-B
Sat 07:09:04 AM 29.8832 -95.2209 100° East 253 291 4,800 1,765 Climbing FlightAware ADS-B
Sat 07:09:18 AM 29.8803 -95.2026 101° East 265 305 5,100 1,448 Climbing FlightAware ADS-B
Sat 07:09:33 AM 29.8765 -95.1804 101° East 277 319 5,500 1,800 Climbing FlightAware ADS-B
Sat 07:09:48 AM 29.8727 -95.1583 101° East 282 325 6,000 1,935 Climbing FlightAware ADS-B
Sat 07:10:04 AM 29.8687 -95.1356 102° East 285 328 6,500 2,276 Climbing FlightAware ADS-B
Sat 07:10:17 AM 29.8650 -95.1152 103° East 284 327 7,100 2,400 Climbing FlightAware ADS-B
Sat 07:10:29 AM 29.8617 -95.0986 103° East 286 329 7,500 2,087 Climbing FlightAware ADS-B
Sat 07:10:40 AM 29.8585 -95.0822 103° East 287 330 7,900 2,087 Climbing FlightAware ADS-B
Sat 07:10:52 AM 29.8548 -95.0631 102° East 290 334 8,300 2,357 Climbing FlightAware ADS-B
Sat 07:11:08 AM 29.8506 -95.0397 102° East 291 335 9,000 2,400 Climbing FlightAware ADS-B
Sat 07:11:22 AM 29.8468 -95.0185 101° East 294 338 9,500 2,000 Climbing FlightAware ADS-B
Sat 07:11:50 AM 29.8392 -94.9752 103° East 301 346 10,400 1,627 Climbing FlightAware ADS-B
Sat 07:12:21 AM 29.8289 -94.9245 102° East 325 374 11,100 1,770 Climbing FlightAware ADS-B
Sat 07:12:51 AM 29.8192 -94.8723 102° East 335 386 12,200 2,105 Climbing FlightAware ADS-B
Sat 07:13:18 AM 29.8106 -94.8244 103° East 349 402 13,100 1,941 Climbing FlightAware ADS-B
Sat 07:13:25 AM 29.8081 -94.8115 102° East 352 405 13,300 1,714 Climbing FlightAware ADS-B
Sat 07:13:32 AM 29.8063 -94.8015 100° East 354 407 13,500 2,294 Climbing FlightAware ADS-B
Sat 07:13:59 AM 29.7979 -94.7484 102° East 360 414 14,600 2,211 Climbing FlightAware ADS-B
Sat 07:14:29 AM 29.7875 -94.6896 102° East 378 435 15,600 2,400 Climbing FlightAware ADS-B
Sat 07:14:59 AM 29.7766 -94.6296 103° East 383 441 17,000 2,459 Climbing FlightAware ADS-B
Sat 07:15:30 AM 29.7643 -94.5690 103° East 391 450 18,100 2,262 Climbing FlightAware ADS-B
Sat 07:16:00 AM 29.7523 -94.5074 102° East 397 457 19,300 2,200 Climbing FlightAware ADS-B
Sat 07:16:30 AM 29.7405 -94.4440 102° East 407 468 20,300 2,000 Climbing FlightAware ADS-B
Sat 07:17:00 AM 29.7286 -94.3795 102° East 416 479 21,300 2,000 Climbing FlightAware ADS-B
Sat 07:17:30 AM 29.7165 -94.3139 102° East 422 486 22,300 1,900 Climbing FlightAware ADS-B
Sat 07:18:00 AM 29.7041 -94.2470 102° East 430 495 23,200 1,672 Climbing FlightAware ADS-B
Sat 07:18:31 AM 29.6914 -94.1792 102° East 439 505 24,000 1,574 Climbing FlightAware ADS-B
Sat 07:19:01 AM 29.6781 -94.1085 102° East 447 514 24,800 1,672 Climbing FlightAware ADS-B
Sat 07:19:32 AM 29.6646 -94.0367 102° East 453 521 25,700 1,672 Climbing FlightAware ADS-B
Sat 07:20:02 AM 29.6510 -93.9649 103° East 458 527 26,500 1,500 Climbing FlightAware ADS-B
Sat 07:20:32 AM 29.6371 -93.8931 102° East 462 532 27,200 1,475 Climbing FlightAware ADS-B
Sat 07:21:03 AM 29.6233 -93.8205 102° East 465 535 28,000 1,377 Climbing FlightAware ADS-B
Sat 07:21:33 AM 29.6093 -93.7467 102° East 472 543 28,600 1,300 Climbing FlightAware ADS-B
Sat 07:22:03 AM 29.5952 -93.6725 102° East 476 548 29,300 1,377 Climbing FlightAware ADS-B
Sat 07:22:34 AM 29.5809 -93.5977 102° East 477 549 30,000 1,279 Climbing FlightAware ADS-B
Sat 07:23:04 AM 29.5664 -93.5225 102° East 481 554 30,600 1,100 Climbing FlightAware ADS-B
Sat 07:23:34 AM 29.5517 -93.4463 102° East 486 559 31,100 1,200 Climbing FlightAware ADS-B
Sat 07:24:04 AM 29.5371 -93.3702 103° East 487 560 31,800 1,377 Climbing FlightAware ADS-B
Sat 07:24:35 AM 29.5221 -93.2930 103° East 486 559 32,500 1,377 Climbing FlightAware ADS-B
Sat 07:25:05 AM 29.5074 -93.2174 103° East 485 558 33,200 1,279 Climbing FlightAware ADS-B
Sat 07:25:36 AM 29.4924 -93.1414 103° East 486 559 33,800 1,065 Climbing FlightAware ADS-B
Sat 07:26:07 AM 29.4769 -93.0634 103° East 488 562 34,300 984 Climbing FlightAware ADS-B
Sat 07:26:37 AM 29.4617 -92.9867 103° East 490 564 34,800 1,100 Climbing FlightAware ADS-B
Sat 07:27:07 AM 29.4465 -92.9095 103° East 490 564 35,400 1,279 Climbing FlightAware ADS-B
Sat 07:27:38 AM 29.4315 -92.8335 103° East 485 558 36,100 1,180 Climbing FlightAware ADS-B
Sat 07:28:08 AM 29.4164 -92.7579 103° East 482 555 36,600 900 Climbing FlightAware ADS-B
Sat 07:28:38 AM 29.4013 -92.6824 103° East 479 551 37,000 253 Climbing FlightAware ADS-B
Sat 07:29:43 AM 29.3692 -92.5229 103° East 477 549 37,000  Level FlightAware ADS-B
Sat 07:30:14 AM 29.3541 -92.4468 102° East 477 549 37,000  Level FlightAware ADS-B
Sat 07:30:47 AM 29.3386 -92.3665 103° East 477 549 37,000  Level FlightAware ADS-B
Sat 07:31:17 AM 29.3236 -92.2918 104° East 477 549 37,000 -81 Level FlightAware ADS-B
Sat 07:32:01 AM 29.3053 -92.2092 103° East 471 542 36,900 -58 Descending Houston Center
Sat 07:33:01 AM 29.2747 -92.0589 105° East 471 542 36,900 50 Level Houston Center
Sat 07:34:01 AM 29.2394 -91.9133 103° East 471 542 37,000 50 Climbing Houston Center
Sat 07:35:01 AM 29.2103 -91.7681 102° East 471 542 37,000  Level Houston Center
Sat 07:36:01 AM 29.1811 -91.6086 103° East 471 542 37,000  Level Houston Center
Sat 07:37:01 AM 29.1519 -91.4611 105° East 466 536 37,000  Level Houston Center
Sat 07:38:01 AM 29.1181 -91.3139 103° East 472 543 37,000  Level Houston Center
Sat 07:39:01 AM 29.0883 -91.1714 104° East 467 537 37,000 -50 Level Houston Center
Sat 07:40:01 AM 29.0564 -91.0242 104° East 467 537 36,900 -50 Descending Houston Center
Sat 07:41:01 AM 29.0244 -90.8817 103° East 467 537 36,900 50 Level Houston Center
Sat 07:42:01 AM 28.9942 -90.7369 104° East 467 537 37,000 50 Climbing Houston Center
Sat 07:43:01 AM 28.9619 -90.5900 104° East 467 537 37,000  Level Houston Center
Sat 07:44:01 AM 28.9314 -90.4456 104° East 474 545 37,000  Level Houston Center
Sat 07:45:01 AM 28.8986 -90.2989 104° East 474 545 37,000  Level Houston Center
Sat 07:46:01 AM 28.8658 -90.1544 103° East 474 545 37,000  Level Houston Center
Sat 07:47:01 AM 28.8350 -90.0078 105° East 468 539 37,000  Level Houston Center
Sat 07:48:01 AM 28.8017 -89.8614 104° East 473 544 37,000  Level Houston Center
Sat 07:49:01 AM 28.7706 -89.7150 105° East 473 544 37,000  Level Houston Center
Sat 07:50:01 AM 28.7369 -89.5711 105° East 473 544 37,000  Level Houston Center
Sat 07:51:01 AM 28.7033 -89.4250 105° East 473 544 37,000 -50 Level Houston Center
Sat 07:52:01 AM 28.6697 -89.2789 105° East 478 550 36,900  Descending Houston Center
Sat 07:53:01 AM 28.6358 -89.1353 104° East 473 544 37,000  Climbing Houston Center
Sat 07:54:01 AM 28.6036 -88.9892 106° East 473 544 36,900  Descending Houston Center
Sat 07:55:01 AM 28.5675 -88.8458 103° East 473 544 37,000 50 Climbing Houston Center
Sat 07:56:01 AM 28.5372 -88.6975 105° East 473 544 37,000  Level Houston Center
Sat 07:57:09 AM 28.4978 -88.5322 105° East 465 535 37,000  Level Jacksonville Center
Sat 07:58:09 AM 28.4625 -88.3817 105° East 470 541 37,000  Level Jacksonville Center
Sat 07:59:10 AM 28.4289 -88.2358 105° East 475 547 37,000  Level Jacksonville Center
Sat 08:00:09 AM 28.3936 -88.0853 108° East 481 554 37,000  Level Jacksonville Center
Sat 08:01:09 AM 28.3531 -87.9467 109° East 481 554 37,000  Level Jacksonville Center
Sat 08:02:09 AM 28.3125 -87.8103 113° Southeast 475 547 37,000  Level Jacksonville Center
Sat 08:03:09 AM 28.2594 -87.6664 109° East 470 541 37,000  Level Jacksonville Center
Sat 08:04:09 AM 28.2206 -87.5350 111° Southeast 465 535 37,000 -50 Level Jacksonville Center
Sat 08:05:10 AM 28.1733 -87.3964 111° Southeast 470 541 36,900  Descending Jacksonville Center
Sat 08:06:09 AM 28.1261 -87.2578 111° Southeast 465 535 37,000 50 Climbing Jacksonville Center
Sat 08:07:10 AM 28.0806 -87.1217 111° Southeast 465 535 37,000 -50 Level Jacksonville Center
Sat 08:08:10 AM 28.0328 -86.9833 110° East 457 526 36,900  Descending Jacksonville Center
Sat 08:09:10 AM 27.9931 -86.8572 111° Southeast 452 520 37,000 50 Climbing Jacksonville Center
Sat 08:10:10 AM 27.9411 -86.7072 112° Southeast 464 534 37,000  Level Jacksonville Center
Sat 08:11:09 AM 27.8931 -86.5694 111° Southeast 467 537 37,000  Level Jacksonville Center
Sat 08:12:09 AM 27.8486 -86.4408 111° Southeast 464 534 37,000  Level Jacksonville Center
Sat 08:13:10 AM 27.8022 -86.3056 111° Southeast 464 534 37,000 -50 Level Jacksonville Center
Sat 08:14:09 AM 27.7558 -86.1658 112° Southeast 459 528 36,900  Descending Jacksonville Center
Sat 08:15:09 AM 27.7111 -86.0378 111° Southeast 453 521 37,000 37 Climbing Jacksonville Center
Sat 08:16:51 AM 27.6339 -85.8103 113° Southeast 460 529 37,000 -37 Level Miami Center
Sat 08:17:51 AM 27.5892 -85.6900 112° Southeast 451 519 36,900  Descending Miami Center
Sat 08:18:51 AM 27.5411 -85.5578 111° Southeast 451 519 37,000  Climbing Miami Center
Sat 08:19:51 AM 27.4967 -85.4281 114° Southeast 451 519 36,900  Descending Miami Center
Sat 08:20:51 AM 27.4442 -85.2958 105° East 451 519 37,000 50 Climbing Miami Center
Sat 08:21:51 AM 27.4122 -85.1650 115° Southeast 451 519 37,000  Level Miami Center
Sat 08:22:51 AM 27.3572 -85.0303 113° Southeast 451 519 37,000  Level Miami Center
Sat 08:23:51 AM 27.3083 -84.8986 110° East 451 519 37,000 -50 Level Miami Center
Sat 08:24:51 AM 27.2656 -84.7672 114° Southeast 446 513 36,900  Descending Miami Center
Sat 08:25:51 AM 27.2122 -84.6353 110° East 451 519 37,000 50 Climbing Miami Center
Sat 08:26:51 AM 27.1692 -84.5042 113° Southeast 451 519 37,000  Level Miami Center
Sat 08:27:51 AM 27.1200 -84.3728 112° Southeast 445 512 37,000  Level Miami Center
Sat 08:28:51 AM 27.0725 -84.2392 112° Southeast 450 518 37,000  Level Miami Center
Sat 08:29:51 AM 27.0269 -84.1106 112° Southeast 450 518 37,000 -50 Level Miami Center
Sat 08:30:51 AM 26.9792 -83.9797 112° Southeast 450 518 36,900 -50 Descending Miami Center
Sat 08:31:51 AM 26.9333 -83.8511 113° Southeast 445 512 36,900  Level Miami Center
Sat 08:32:51 AM 26.8833 -83.7203 112° Southeast 445 512 36,900  Level Miami Center
Sat 08:33:51 AM 26.8372 -83.5919 112° Southeast 445 512 36,900 50 Level Miami Center
Sat 08:34:51 AM 26.7908 -83.4614 114° Southeast 445 512 37,000 50 Climbing Miami Center
Sat 08:35:51 AM 26.7383 -83.3308 111° Southeast 445 512 37,000 -50 Level Miami Center
Sat 08:36:51 AM 26.6939 -83.2028 114° Southeast 445 512 36,900 -50 Descending Miami Center
Sat 08:37:51 AM 26.6431 -83.0747 111° Southeast 445 512 36,900  Level Miami Center
Sat 08:38:51 AM 26.5967 -82.9422 114° Southeast 445 512 36,900 -500 Level Miami Center
Sat 08:39:51 AM 26.5456 -82.8144 113° Southeast 445 512 35,900 -950 Descending Miami Center
Sat 08:40:51 AM 26.4964 -82.6867 112° Southeast 450 518 35,000 -950 Descending Miami Center
Sat 08:41:51 AM 26.4475 -82.5544 112° Southeast 450 518 34,000 -1,000 Descending Miami Center
Sat 08:42:51 AM 26.3983 -82.4200 114° Southeast 450 518 33,000 -950 Descending Miami Center
Sat 08:43:51 AM 26.3469 -82.2900 113° Southeast 456 525 32,100 -1,300 Descending Miami Center
Sat 08:44:51 AM 26.2975 -82.1606 113° Southeast 456 525 30,400 -1,950 Descending Miami Center
Sat 08:45:51 AM 26.2458 -82.0239 113° Southeast 461 531 28,200 -2,400 Descending Miami Center
Sat 08:46:51 AM 26.1964 -81.8922 113° Southeast 461 531 25,600 -2,700 Descending Miami Center
Sat 08:47:51 AM 26.1483 -81.7675 107° East 448 516 22,800 -2,600 Descending Miami Center
Sat 08:48:51 AM 26.1128 -81.6411 110° East 437 503 20,400 -2,500 Descending Miami Center
Sat 08:49:51 AM 26.0728 -81.5217 110° East 426 490 17,800 -2,400 Descending Miami Center
Sat 08:50:51 AM 26.0347 -81.4069 110° East 412 474 15,600 -1,850 Descending Miami Center
Sat 08:51:51 AM 25.9983 -81.2969 109° East 393 452 14,100 -1,850 Descending Miami Center
Sat 08:52:51 AM 25.9661 -81.1942 112° Southeast 372 428 11,900 -2,050 Descending Miami Center
Sat 08:53:51 AM 25.9253 -81.0842 96° East 346 398 10,000 -1,050 Descending Miami Center
Sat 08:54:51 AM 25.9172 -81.0006 96° East 331 381 9,800 -550 Descending Miami Center
Sat 08:55:51 AM 25.9092 -80.9150 95° East 296 341 8,900 -1,000 Descending Miami Center
Sat 08:56:51 AM 25.9031 -80.8339 88° East 263 303 7,800 -1,350 Descending Miami Center
Sat 08:57:51 AM 25.9050 -80.7672 84° East 237 273 6,200 -1,400 Descending Miami Center
Sat 08:58:51 AM 25.9108 -80.7025 90° East 211 243 5,000 -1,318 Descending Miami Center
Sat 09:00:03 AM 25.9106 -80.6356 78° East 194 223 3,300 -1,050 Descending Miami Center
Sat 09:00:51 AM 25.9200 -80.5853 97° East 194 223 2,900 -222 Descending Miami Center
Sat 09:01:51 AM 25.9133 -80.5250 97° East 194 223 2,900  Level Miami Center

Login

Don't have an account? Register now (free) for customized features, flight alerts, and more!